createdAt,value
2019-05-19T00:01:58.991Z,49.09
2019-05-19T00:04:28.257Z,49.50
2019-05-19T00:06:57.438Z,50.49
2019-05-19T00:09:26.504Z,49.96
2019-05-19T00:11:55.613Z,50.15
2019-05-19T00:14:24.760Z,50.36
2019-05-19T00:16:54.415Z,50.23
2019-05-19T00:19:26.811Z,50.37
2019-05-19T00:21:54.635Z,50.82
2019-05-19T00:24:23.846Z,50.73
2019-05-19T00:26:52.858Z,50.97
2019-05-19T00:29:23.245Z,50.72
2019-05-19T00:31:52.473Z,50.87
2019-05-19T00:34:21.851Z,50.78
2019-05-19T00:36:50.872Z,50.80
2019-05-19T00:39:20.086Z,50.68
2019-05-19T00:41:49.335Z,50.52
2019-05-19T00:44:19.102Z,50.90
2019-05-19T00:46:48.486Z,50.46
2019-05-19T00:49:17.871Z,49.97
2019-05-19T00:51:47.462Z,50.62
2019-05-19T00:54:16.877Z,50.02
2019-05-19T00:56:46.552Z,50.29
2019-05-19T00:59:16.087Z,50.35
2019-05-19T01:01:45.481Z,50.43
2019-05-19T01:04:14.600Z,50.46
2019-05-19T01:06:44.029Z,50.50
2019-05-19T01:09:13.327Z,50.66
2019-05-19T01:11:42.545Z,50.43
2019-05-19T01:14:11.684Z,50.57
2019-05-19T01:16:41.480Z,50.61
2019-05-19T01:19:11.446Z,50.69
2019-05-19T01:21:41.446Z,50.62
2019-05-19T01:24:11.011Z,50.44
2019-05-19T01:26:41.353Z,50.62
2019-05-19T01:29:10.433Z,50.96
2019-05-19T01:31:39.635Z,51.06
2019-05-19T01:34:08.518Z,51.23
2019-05-19T01:36:37.692Z,51.03
2019-05-19T01:39:07.509Z,51.40
2019-05-19T01:41:37.148Z,51.63
2019-05-19T01:44:06.344Z,51.73
2019-05-19T01:46:39.985Z,51.80
2019-05-19T01:49:07.969Z,51.87
2019-05-19T01:51:37.269Z,51.87
2019-05-19T01:54:06.545Z,52.14
2019-05-19T01:56:37.095Z,51.92
2019-05-19T01:59:06.426Z,52.09
2019-05-19T02:01:35.395Z,52.08
2019-05-19T02:04:04.588Z,52.29
2019-05-19T02:06:33.823Z,52.21
2019-05-19T02:09:04.833Z,52.22
2019-05-19T02:11:34.375Z,52.44
2019-05-19T02:14:03.692Z,52.22
2019-05-19T02:16:33.705Z,52.59
2019-05-19T02:19:03.501Z,52.08
2019-05-19T02:21:33.849Z,52.27
2019-05-19T02:24:03.350Z,52.45
2019-05-19T02:26:34.405Z,52.53
2019-05-19T02:29:03.497Z,52.91
2019-05-19T02:31:32.588Z,52.46
2019-05-19T02:34:01.720Z,52.62
2019-05-19T02:36:30.770Z,52.35
2019-05-19T02:39:00.134Z,52.13
2019-05-19T02:41:29.408Z,52.20
2019-05-19T02:43:58.860Z,52.26
2019-05-19T02:46:28.901Z,52.36
2019-05-19T02:48:58.339Z,51.44
2019-05-19T02:51:28.430Z,51.44
2019-05-19T02:53:58.047Z,52.00
2019-05-19T02:56:28.088Z,51.72
2019-05-19T02:58:57.753Z,51.35
2019-05-19T03:01:26.950Z,51.25
2019-05-19T03:03:56.173Z,51.45
2019-05-19T03:06:25.458Z,50.91
2019-05-19T03:08:54.553Z,51.04
2019-05-19T03:11:23.739Z,51.25
2019-05-19T03:13:53.024Z,50.72
2019-05-19T03:16:22.841Z,50.78
2019-05-19T03:18:51.825Z,50.14
2019-05-19T03:21:21.386Z,49.84
2019-05-19T03:23:50.445Z,50.31
2019-05-19T03:26:19.535Z,51.22
2019-05-19T03:28:48.961Z,50.39
2019-05-19T03:31:43.366Z,51.01
2019-05-19T03:34:13.396Z,49.18
2019-05-19T03:36:42.979Z,49.08
2019-05-19T03:39:12.330Z,48.73
2019-05-19T03:41:42.009Z,48.36
2019-05-19T03:44:11.051Z,48.78
2019-05-19T03:46:40.213Z,48.64
2019-05-19T03:49:09.272Z,47.81
2019-05-19T03:51:38.340Z,46.87
2019-05-19T03:54:07.433Z,47.27
2019-05-19T03:56:36.640Z,47.00
2019-05-19T03:59:05.799Z,47.13
2019-05-19T04:01:34.844Z,46.79
2019-05-19T04:04:03.943Z,46.73
2019-05-19T04:06:33.148Z,47.44
2019-05-19T04:09:02.335Z,46.72
2019-05-19T04:11:31.581Z,46.58
2019-05-19T04:14:00.794Z,46.70
2019-05-19T04:16:29.792Z,46.88
2019-05-19T04:18:59.641Z,45.89
2019-05-19T04:21:28.815Z,46.40
2019-05-19T04:23:58.172Z,46.82
2019-05-19T04:26:27.385Z,45.66
2019-05-19T04:28:56.708Z,45.45
2019-05-19T04:31:26.001Z,45.07
2019-05-19T04:33:55.257Z,44.98
2019-05-19T04:36:24.490Z,44.73
2019-05-19T04:38:53.616Z,45.02
2019-05-19T04:41:22.712Z,44.93
2019-05-19T04:43:51.675Z,44.28
2019-05-19T04:46:20.778Z,43.85
2019-05-19T04:48:50.159Z,43.79
2019-05-19T04:51:19.365Z,43.61
2019-05-19T04:53:48.497Z,43.89
2019-05-19T04:56:19.771Z,43.74
2019-05-19T04:58:48.464Z,43.68
2019-05-19T05:01:18.346Z,42.62
2019-05-19T05:03:48.610Z,41.64
2019-05-19T05:06:17.715Z,42.13
2019-05-19T05:08:48.471Z,41.87
2019-05-19T05:11:17.956Z,40.60
2019-05-19T05:13:47.512Z,41.01
2019-05-19T05:16:17.175Z,40.63
2019-05-19T05:18:48.027Z,39.78
2019-05-19T05:21:17.393Z,40.17
2019-05-19T05:23:46.670Z,39.27
2019-05-19T05:26:15.739Z,40.45
2019-05-19T05:28:45.204Z,40.56
2019-05-19T05:31:15.617Z,40.43
2019-05-19T05:33:46.292Z,39.35
2019-05-19T05:36:15.415Z,38.76
2019-05-19T05:38:44.895Z,39.22
2019-05-19T05:41:15.703Z,39.20
2019-05-19T05:43:45.462Z,38.73
2019-05-19T05:46:14.553Z,38.82
2019-05-19T05:48:43.646Z,38.74
2019-05-19T05:51:12.853Z,38.48
2019-05-19T05:53:41.957Z,38.98
2019-05-19T05:56:11.287Z,38.69
2019-05-19T05:58:41.679Z,38.93
2019-05-19T06:01:10.785Z,38.45
2019-05-19T06:03:40.214Z,38.31
2019-05-19T06:06:09.501Z,38.72
2019-05-19T06:08:39.340Z,37.67
2019-05-19T06:11:09.203Z,37.92
2019-05-19T06:13:39.002Z,38.19
2019-05-19T06:16:08.743Z,37.51
2019-05-19T06:18:38.151Z,38.11
2019-05-19T06:21:07.560Z,38.08
2019-05-19T06:23:37.216Z,37.92
2019-05-19T06:26:06.849Z,38.24
2019-05-19T06:28:35.781Z,37.78
2019-05-19T06:31:04.824Z,37.40
2019-05-19T06:33:34.503Z,37.96
2019-05-19T06:36:03.546Z,38.66
2019-05-19T06:38:32.884Z,38.11
2019-05-19T06:41:02.177Z,37.97
2019-05-19T06:43:31.309Z,37.80
2019-05-19T06:46:00.611Z,37.68
2019-05-19T06:48:30.166Z,37.66
2019-05-19T06:50:59.376Z,37.05
2019-05-19T06:53:28.707Z,35.99
2019-05-19T06:55:57.709Z,36.50
2019-05-19T06:58:27.590Z,35.89
2019-05-19T07:00:59.130Z,36.03
2019-05-19T07:03:30.082Z,35.92
2019-05-19T07:05:59.734Z,36.24
2019-05-19T07:08:30.675Z,35.62
2019-05-19T07:10:59.917Z,36.76
2019-05-19T07:13:28.915Z,35.70
2019-05-19T07:15:58.260Z,35.59
2019-05-19T07:18:27.664Z,36.05
2019-05-19T07:20:56.894Z,35.81
2019-05-19T07:23:28.637Z,35.69
2019-05-19T07:25:58.540Z,35.72
2019-05-19T07:28:28.101Z,35.09
2019-05-19T07:30:57.425Z,35.03
2019-05-19T07:33:26.673Z,35.10
2019-05-19T07:35:55.753Z,35.11
2019-05-19T07:38:24.817Z,34.26
2019-05-19T07:40:53.788Z,35.10
2019-05-19T07:43:23.184Z,34.76
2019-05-19T07:45:52.540Z,35.52
2019-05-19T07:48:21.531Z,34.35
2019-05-19T07:50:50.601Z,34.79
2019-05-19T07:53:19.809Z,35.26
2019-05-19T07:55:49.373Z,35.22
2019-05-19T07:58:19.926Z,35.03
2019-05-19T08:00:49.738Z,35.28
2019-05-19T08:03:19.020Z,35.00
2019-05-19T08:05:48.057Z,35.54
2019-05-19T08:08:17.332Z,35.00
2019-05-19T08:10:46.636Z,35.47
2019-05-19T08:13:15.854Z,35.04
2019-05-19T08:15:44.995Z,35.67
2019-05-19T08:18:14.451Z,35.59
2019-05-19T08:20:43.838Z,35.48
2019-05-19T08:23:12.870Z,35.61
2019-05-19T08:25:43.255Z,35.44
2019-05-19T08:28:12.639Z,35.57
2019-05-19T08:30:42.032Z,35.25
2019-05-19T08:33:11.039Z,35.75
2019-05-19T08:35:40.429Z,35.03
2019-05-19T08:38:10.101Z,35.26
2019-05-19T08:40:39.345Z,35.24
2019-05-19T08:43:08.492Z,35.48
2019-05-19T08:45:38.106Z,35.12
2019-05-19T08:48:09.015Z,35.06
2019-05-19T08:50:39.061Z,34.70
2019-05-19T08:53:08.569Z,34.47
2019-05-19T08:55:37.715Z,34.14
2019-05-19T08:58:07.902Z,34.41
2019-05-19T09:00:38.549Z,34.89
2019-05-19T09:03:08.279Z,33.78
2019-05-19T09:05:38.181Z,33.92
2019-05-19T09:08:07.272Z,34.33
2019-05-19T09:10:37.834Z,34.26
2019-05-19T09:13:07.589Z,34.17
2019-05-19T09:15:37.612Z,34.21
2019-05-19T09:18:07.076Z,34.69
2019-05-19T09:20:36.801Z,34.28
2019-05-19T09:23:06.114Z,34.16
2019-05-19T09:25:36.372Z,33.98
2019-05-19T09:28:05.939Z,34.06
2019-05-19T09:30:35.695Z,33.73
2019-05-19T09:33:05.317Z,34.40
2019-05-19T09:35:35.099Z,33.89
2019-05-19T09:38:04.769Z,34.46
2019-05-19T09:40:34.064Z,34.26
2019-05-19T09:43:04.220Z,34.42
2019-05-19T09:45:34.926Z,34.00
2019-05-19T09:48:04.902Z,33.46
2019-05-19T09:50:34.458Z,32.88
2019-05-19T09:53:04.323Z,33.25
2019-05-19T09:55:35.150Z,33.32
2019-05-19T09:58:05.470Z,33.46
2019-05-19T10:00:34.849Z,33.12
2019-05-19T10:03:04.066Z,33.15
2019-05-19T10:05:33.465Z,33.29
2019-05-19T10:08:03.387Z,33.69
2019-05-19T10:11:45.862Z,32.98
2019-05-19T10:14:15.040Z,32.21
2019-05-19T10:16:46.909Z,33.17
2019-05-19T10:19:17.782Z,32.75
2019-05-19T10:21:46.571Z,32.54
2019-05-19T10:24:15.465Z,32.56
2019-05-19T10:26:47.277Z,31.97
2019-05-19T10:29:16.735Z,31.69
2019-05-19T10:31:46.068Z,31.85
2019-05-19T10:34:15.396Z,31.76
2019-05-19T10:36:44.646Z,31.94
2019-05-19T10:39:13.836Z,31.94
2019-05-19T10:41:43.127Z,32.63
2019-05-19T10:44:12.321Z,31.94
2019-05-19T10:46:44.345Z,32.19
2019-05-19T10:49:14.114Z,32.53
2019-05-19T10:51:43.261Z,31.75
2019-05-19T10:54:12.320Z,31.70
2019-05-19T10:56:41.658Z,30.94
2019-05-19T10:59:11.085Z,30.98
2019-05-19T11:01:40.569Z,31.27
2019-05-19T11:04:09.903Z,31.48
2019-05-19T11:06:39.011Z,31.38
2019-05-19T11:09:08.829Z,30.79
2019-05-19T11:11:37.847Z,31.53
2019-05-19T11:14:07.372Z,30.89
2019-05-19T11:16:36.487Z,30.39
2019-05-19T11:19:05.855Z,29.76
2019-05-19T11:21:35.129Z,27.44
2019-05-19T11:24:04.640Z,24.74
2019-05-19T11:26:33.834Z,23.13
2019-05-19T11:29:03.153Z,22.39
2019-05-19T11:31:32.830Z,22.92
2019-05-19T11:34:02.372Z,25.07
2019-05-19T11:36:31.876Z,24.86
2019-05-19T11:39:02.046Z,25.40
2019-05-19T11:41:32.477Z,25.35
2019-05-19T11:44:01.650Z,25.73
2019-05-19T11:46:30.698Z,25.70
2019-05-19T11:48:59.878Z,24.00
2019-05-19T11:51:29.329Z,22.79
2019-05-19T11:53:58.656Z,23.81
2019-05-19T11:56:27.541Z,21.22
2019-05-19T11:58:56.123Z,19.31
2019-05-19T12:01:25.457Z,17.39
2019-05-19T12:03:55.535Z,15.79
2019-05-19T12:06:37.997Z,14.68
2019-05-19T12:08:55.561Z,13.65
2019-05-19T12:11:24.411Z,13.02
2019-05-19T12:13:53.379Z,12.43
2019-05-19T12:16:22.386Z,11.99
2019-05-19T12:18:51.315Z,11.63
2019-05-19T12:21:20.064Z,10.66
2019-05-19T12:23:48.988Z,11.61
2019-05-19T12:26:23.072Z,11.71
2019-05-19T12:28:48.547Z,11.49
2019-05-19T12:31:17.236Z,11.14
2019-05-19T12:33:52.093Z,10.91
2019-05-19T12:36:17.697Z,10.41
2019-05-19T12:38:46.893Z,10.25
2019-05-19T12:41:15.867Z,10.03
2019-05-19T12:43:44.749Z,9.82
2019-05-19T12:46:16.645Z,9.59
2019-05-19T12:48:44.565Z,9.21
2019-05-19T12:51:13.560Z,9.15
2019-05-19T12:53:42.549Z,8.95
2019-05-19T12:56:11.604Z,9.28
2019-05-19T12:58:40.471Z,9.60
2019-05-19T13:01:09.265Z,10.43
2019-05-19T13:03:38.109Z,10.32
2019-05-19T13:06:07.314Z,10.48
2019-05-19T13:08:36.388Z,10.35
2019-05-19T13:11:05.284Z,10.30
2019-05-19T13:13:34.150Z,10.25
2019-05-19T13:16:02.821Z,9.98
2019-05-19T13:18:31.607Z,10.46
2019-05-19T13:21:00.447Z,10.25
2019-05-19T13:23:29.830Z,10.98
2019-05-19T13:25:58.908Z,10.78
2019-05-19T13:28:27.822Z,10.72
2019-05-19T13:30:56.722Z,10.69
2019-05-19T13:33:25.786Z,10.67
2019-05-19T13:35:54.825Z,10.44
2019-05-19T13:38:24.093Z,10.56
2019-05-19T13:40:52.984Z,10.72
2019-05-19T13:43:25.843Z,10.76
2019-05-19T13:45:52.934Z,10.67
2019-05-19T13:48:23.448Z,10.33
2019-05-19T13:50:52.423Z,10.70
2019-05-19T13:53:21.132Z,10.72
2019-05-19T13:55:50.718Z,10.61
2019-05-19T13:58:19.529Z,10.44
2019-05-19T14:00:48.711Z,10.18
2019-05-19T14:03:17.712Z,10.46
2019-05-19T14:05:46.374Z,10.10
2019-05-19T14:08:15.217Z,10.10
2019-05-19T14:10:44.723Z,10.21
2019-05-19T14:13:13.756Z,10.23
2019-05-19T14:15:43.142Z,11.05
2019-05-19T14:18:12.454Z,11.29
2019-05-19T14:20:41.149Z,12.71
2019-05-19T14:23:10.131Z,12.54
2019-05-19T14:25:39.632Z,12.29
2019-05-19T14:28:08.450Z,12.46
2019-05-19T14:30:37.590Z,13.76
2019-05-19T14:33:06.661Z,13.13
2019-05-19T14:35:35.669Z,13.24
2019-05-19T14:38:04.939Z,13.22
2019-05-19T14:40:34.107Z,12.61
2019-05-19T14:43:04.189Z,12.08
2019-05-19T14:45:33.189Z,12.00
2019-05-19T14:48:02.001Z,11.78
2019-05-19T14:50:30.786Z,11.83
2019-05-19T14:52:59.653Z,11.59
2019-05-19T14:55:30.308Z,11.89
2019-05-19T14:57:59.086Z,12.17
2019-05-19T15:00:27.835Z,12.33
2019-05-19T15:02:56.710Z,13.44
2019-05-19T15:05:25.468Z,15.18
2019-05-19T15:07:55.168Z,15.02
2019-05-19T15:10:24.523Z,15.77
2019-05-19T15:12:53.682Z,17.18
2019-05-19T15:15:22.697Z,16.75
2019-05-19T15:17:52.569Z,16.17
2019-05-19T15:20:21.734Z,15.60
2019-05-19T15:22:50.739Z,16.76
2019-05-19T15:25:19.686Z,18.47
2019-05-19T15:27:59.919Z,20.22
2019-05-19T15:30:19.041Z,21.74
2019-05-19T15:32:48.339Z,23.18
2019-05-19T15:35:17.661Z,24.46
2019-05-19T15:37:46.440Z,25.40
2019-05-19T15:40:15.415Z,26.18
2019-05-19T15:42:44.790Z,26.98
2019-05-19T15:45:14.068Z,27.73
2019-05-19T15:47:44.481Z,28.14
2019-05-19T15:50:13.491Z,28.39
2019-05-19T15:52:42.472Z,29.02
2019-05-19T15:55:11.881Z,29.61
2019-05-19T15:57:41.142Z,29.92
2019-05-19T16:00:10.953Z,30.28
2019-05-19T16:02:40.277Z,30.32
2019-05-19T16:05:09.761Z,30.65
2019-05-19T16:07:39.245Z,30.91
2019-05-19T16:10:10.102Z,31.31
2019-05-19T16:12:39.466Z,30.90
2019-05-19T16:15:08.714Z,31.30
2019-05-19T16:17:38.024Z,31.30
2019-05-19T16:20:08.515Z,31.51
2019-05-19T16:22:38.282Z,31.64
2019-05-19T16:25:07.778Z,31.81
2019-05-19T16:27:38.118Z,31.73
2019-05-19T16:30:07.431Z,31.74
2019-05-19T16:32:36.433Z,31.86
2019-05-19T16:35:08.617Z,32.17
2019-05-19T16:37:38.992Z,32.23
2019-05-19T16:40:08.901Z,32.28
2019-05-19T16:42:38.087Z,32.38
2019-05-19T16:45:08.706Z,32.58
2019-05-19T16:47:37.764Z,32.80
2019-05-19T16:50:07.824Z,32.97
2019-05-19T16:52:37.619Z,33.32
2019-05-19T16:55:22.969Z,32.78
2019-05-19T16:57:52.443Z,33.15
2019-05-19T17:00:21.833Z,33.17
2019-05-19T17:02:50.812Z,33.63
2019-05-19T17:05:19.971Z,33.73
2019-05-19T17:07:49.510Z,33.96
2019-05-19T17:10:20.116Z,34.10
2019-05-19T17:12:48.997Z,34.00
2019-05-19T17:15:18.710Z,34.20
2019-05-19T17:17:48.088Z,33.85
2019-05-19T17:20:18.257Z,34.18
2019-05-19T17:22:47.307Z,34.69
2019-05-19T17:25:16.611Z,34.70
2019-05-19T17:27:45.776Z,35.17
2019-05-19T17:30:15.817Z,34.88
2019-05-19T17:32:45.162Z,35.32
2019-05-19T17:35:14.432Z,35.60
2019-05-19T17:37:43.693Z,35.09
2019-05-19T17:40:14.199Z,35.48
2019-05-19T17:42:44.359Z,35.48
2019-05-19T17:45:13.409Z,35.70
2019-05-19T17:47:42.596Z,36.07
2019-05-19T17:50:13.073Z,36.29
2019-05-19T17:52:42.422Z,36.54
2019-05-19T17:55:11.597Z,36.46
2019-05-19T17:57:41.262Z,36.26
2019-05-19T18:00:10.776Z,36.53
2019-05-19T18:02:40.192Z,36.37
2019-05-19T18:05:09.792Z,36.38
2019-05-19T18:07:39.355Z,36.50
2019-05-19T18:10:09.168Z,36.48
2019-05-19T18:12:38.590Z,36.32
2019-05-19T18:15:07.963Z,36.91
2019-05-19T18:17:37.223Z,36.89
2019-05-19T18:20:06.904Z,37.05
2019-05-19T18:22:36.286Z,36.80
2019-05-19T18:25:05.396Z,37.85
2019-05-19T18:27:34.697Z,37.20
2019-05-19T18:30:03.998Z,37.43
2019-05-19T18:32:33.202Z,37.60
2019-05-19T18:35:02.562Z,37.65
2019-05-19T18:37:31.816Z,37.70
2019-05-19T18:40:02.957Z,37.75
2019-05-19T18:42:32.421Z,37.88
2019-05-19T18:45:01.632Z,38.13
2019-05-19T18:47:31.020Z,38.13
2019-05-19T18:50:00.089Z,38.18
2019-05-19T18:52:29.510Z,38.13
2019-05-19T18:54:58.817Z,39.14
2019-05-19T18:57:28.036Z,39.09
2019-05-19T18:59:57.723Z,37.96
2019-05-19T19:02:27.077Z,37.97
2019-05-19T19:04:56.303Z,38.32
2019-05-19T19:07:45.164Z,38.86
2019-05-19T19:10:14.441Z,38.71
2019-05-19T19:12:44.562Z,39.17
2019-05-19T19:15:14.021Z,38.67
2019-05-19T19:17:43.482Z,39.30
2019-05-19T19:20:12.893Z,39.73
2019-05-19T19:22:42.258Z,39.13
2019-05-19T19:25:11.327Z,38.71
2019-05-19T19:27:40.505Z,39.28
2019-05-19T19:30:10.897Z,38.65
2019-05-19T19:32:40.246Z,38.62
2019-05-19T19:35:10.764Z,39.12
2019-05-19T19:37:40.100Z,39.02
2019-05-19T19:40:09.782Z,38.92
2019-05-19T19:42:39.207Z,39.10
2019-05-19T19:45:09.076Z,39.26
2019-05-19T19:47:38.430Z,39.32
2019-05-19T19:50:09.021Z,39.33
2019-05-19T19:52:38.294Z,39.52
2019-05-19T19:55:07.639Z,40.05
2019-05-19T19:57:36.693Z,41.46
2019-05-19T20:00:17.978Z,39.56
2019-05-19T20:02:38.423Z,39.57
2019-05-19T20:05:08.029Z,38.46
2019-05-19T20:07:38.925Z,37.96
2019-05-19T20:10:08.452Z,37.13
2019-05-19T20:12:38.547Z,37.07
2019-05-19T20:15:08.306Z,39.72
2019-05-19T20:17:37.796Z,39.13
2019-05-19T20:20:06.929Z,36.77
2019-05-19T20:22:36.118Z,36.36
2019-05-19T20:25:05.519Z,36.86
2019-05-19T20:27:36.014Z,36.09
2019-05-19T20:30:05.548Z,35.89
2019-05-19T20:32:34.488Z,35.81
2019-05-19T20:35:03.855Z,36.03
2019-05-19T20:37:33.224Z,35.44
2019-05-19T20:40:02.372Z,35.31
2019-05-19T20:42:32.198Z,35.49
2019-05-19T20:45:01.379Z,38.10
2019-05-19T20:47:30.728Z,36.54
2019-05-19T20:50:00.484Z,35.45
2019-05-19T20:52:30.118Z,34.53
2019-05-19T20:54:59.137Z,34.83
2019-05-19T20:57:28.406Z,34.43
2019-05-19T20:59:57.854Z,34.25
2019-05-19T21:02:28.490Z,34.51
2019-05-19T21:04:57.900Z,34.33
2019-05-19T21:07:27.477Z,34.33
2019-05-19T21:09:57.836Z,33.90
2019-05-19T21:12:26.945Z,34.04
2019-05-19T21:14:56.136Z,33.45
2019-05-19T21:17:38.036Z,33.90
2019-05-19T21:20:07.532Z,33.90
2019-05-19T21:22:36.895Z,33.25
2019-05-19T21:25:06.349Z,33.29
2019-05-19T21:27:35.636Z,34.03
2019-05-19T21:30:04.996Z,35.00
2019-05-19T21:32:34.015Z,34.51
2019-05-19T21:35:03.349Z,34.77
2019-05-19T21:37:32.394Z,35.45
2019-05-19T21:40:01.711Z,34.10
2019-05-19T21:42:30.723Z,34.41
2019-05-19T21:44:59.841Z,35.06
2019-05-19T21:47:29.017Z,34.35
2019-05-19T21:49:58.165Z,36.48
2019-05-19T21:52:27.492Z,36.08
2019-05-19T21:54:56.595Z,34.31
2019-05-19T21:57:26.199Z,34.25
2019-05-19T21:59:55.197Z,34.25
2019-05-19T22:02:24.338Z,34.76
2019-05-19T22:04:53.615Z,34.47
2019-05-19T22:07:53.588Z,34.72
2019-05-19T22:10:22.874Z,35.24
2019-05-19T22:12:51.697Z,35.61
2019-05-19T22:15:21.178Z,34.55
2019-05-19T22:17:50.563Z,34.40
2019-05-19T22:20:19.950Z,34.80
2019-05-19T22:22:49.153Z,35.54
2019-05-19T22:25:18.168Z,35.54
2019-05-19T22:27:47.237Z,35.43
2019-05-19T22:30:16.706Z,35.88
2019-05-19T22:32:46.046Z,35.85
2019-05-19T22:35:15.519Z,35.53
2019-05-19T22:37:44.744Z,36.75
2019-05-19T22:40:15.950Z,36.06
2019-05-19T22:42:45.773Z,37.62
2019-05-19T22:45:14.978Z,36.57
2019-05-19T22:47:44.371Z,38.16
2019-05-19T22:50:14.001Z,37.06
2019-05-19T22:52:43.708Z,37.49
2019-05-19T22:55:13.461Z,36.28
2019-05-19T22:57:42.410Z,36.94
2019-05-19T23:00:12.992Z,38.27
2019-05-19T23:02:43.665Z,35.72
2019-05-19T23:05:13.617Z,35.93
2019-05-19T23:07:42.903Z,35.82
2019-05-19T23:10:13.630Z,36.05
2019-05-19T23:12:42.655Z,36.05
2019-05-19T23:15:11.970Z,35.86
2019-05-19T23:17:41.090Z,35.99
2019-05-19T23:20:10.795Z,36.17
2019-05-19T23:22:39.857Z,38.57
2019-05-19T23:25:09.034Z,38.57
2019-05-19T23:27:38.220Z,36.28
2019-05-19T23:30:07.764Z,37.64
2019-05-19T23:32:36.857Z,37.64
2019-05-19T23:35:06.305Z,37.20
2019-05-19T23:37:35.274Z,37.03
2019-05-19T23:40:04.867Z,37.03
2019-05-19T23:42:34.462Z,36.95
2019-05-19T23:45:03.559Z,36.89
2019-05-19T23:47:32.756Z,37.60
2019-05-19T23:50:01.852Z,37.39
2019-05-19T23:52:31.063Z,38.22
2019-05-19T23:55:00.073Z,37.59
2019-05-19T23:57:29.155Z,37.58
2019-05-19T23:59:58.485Z,39.83
